createdAt,value
2023-02-05T00:01:21.728Z,6.35
2023-02-05T00:16:25.001Z,5.93
2023-02-05T00:31:27.254Z,5.93
2023-02-05T00:46:29.316Z,5.00
2023-02-05T01:01:31.422Z,5.22
2023-02-05T01:16:33.396Z,5.20
2023-02-05T01:31:35.599Z,5.05
2023-02-05T01:46:40.056Z,5.38
2023-02-05T02:01:43.487Z,6.13
2023-02-05T02:16:45.875Z,5.68
2023-02-05T02:31:57.378Z,5.90
2023-02-05T02:47:05.951Z,6.18
2023-02-05T03:02:11.358Z,6.05
2023-02-05T03:17:18.730Z,6.15
2023-02-05T03:32:57.651Z,5.68
2023-02-05T03:48:14.811Z,5.63
2023-02-05T04:03:17.246Z,6.40
2023-02-05T04:18:19.913Z,5.97
2023-02-05T04:33:21.922Z,6.70
2023-02-05T04:48:23.879Z,6.53
2023-02-05T05:03:25.882Z,7.05
2023-02-05T05:18:28.205Z,6.35
2023-02-05T05:33:30.165Z,7.30
2023-02-05T05:48:32.289Z,7.85
2023-02-05T06:03:34.624Z,15.38
2023-02-05T06:18:36.977Z,9.40
2023-02-05T06:33:38.938Z,8.18
2023-02-05T06:48:40.914Z,10.90
2023-02-05T07:03:42.899Z,9.80
2023-02-05T07:18:44.831Z,9.98
2023-02-05T07:33:47.981Z,9.65
2023-02-05T07:48:50.021Z,9.57
2023-02-05T08:03:52.009Z,9.82
2023-02-05T08:18:53.948Z,12.82
2023-02-05T08:33:57.910Z,9.00
2023-02-05T08:49:00.372Z,9.75
2023-02-05T09:04:04.197Z,9.95
2023-02-05T09:19:06.653Z,9.23
2023-02-05T09:34:08.658Z,9.52
2023-02-05T09:49:30.262Z,8.75
2023-02-05T10:04:32.233Z,6.05
2023-02-05T10:19:57.642Z,4.90
2023-02-05T10:35:05.761Z,4.05
2023-02-05T10:50:23.162Z,3.80
2023-02-05T11:05:34.745Z,3.90
2023-02-05T11:20:40.311Z,3.78
2023-02-05T11:36:00.282Z,3.65
2023-02-05T11:51:04.781Z,3.88
2023-02-05T12:06:17.579Z,3.40
2023-02-05T12:21:30.265Z,3.67
2023-02-05T12:36:37.835Z,3.58
2023-02-05T12:52:01.348Z,3.80
2023-02-05T13:07:15.821Z,3.67
2023-02-05T13:22:44.189Z,4.55
2023-02-05T13:37:51.673Z,6.60
2023-02-05T13:52:53.577Z,4.73
2023-02-05T14:07:57.919Z,4.85
2023-02-05T14:23:01.838Z,5.07
2023-02-05T14:38:28.886Z,5.30
2023-02-05T14:53:32.894Z,5.32
2023-02-05T15:08:34.853Z,7.80
2023-02-05T15:23:48.879Z,6.88
2023-02-05T15:39:09.425Z,8.88
2023-02-05T15:54:20.170Z,11.95
2023-02-05T16:09:25.176Z,14.27
2023-02-05T16:24:29.694Z,18.23
2023-02-05T16:39:46.004Z,20.23
2023-02-05T16:54:48.155Z,19.38
2023-02-05T17:09:50.956Z,21.58
2023-02-05T17:24:54.622Z,25.88
2023-02-05T17:39:57.879Z,35.45
2023-02-05T17:55:01.082Z,42.10
2023-02-05T18:10:04.505Z,33.03
2023-02-05T18:25:07.630Z,42.33
2023-02-05T18:40:10.229Z,41.15
2023-02-05T18:55:12.609Z,40.78
2023-02-05T19:10:14.750Z,42.30
2023-02-05T19:25:17.340Z,32.90
2023-02-05T19:40:19.495Z,27.15
2023-02-05T19:55:21.494Z,25.17
2023-02-05T20:10:24.117Z,32.00
2023-02-05T20:25:26.063Z,42.42
2023-02-05T20:40:28.004Z,41.25
2023-02-05T20:55:29.958Z,42.78
2023-02-05T21:10:32.141Z,46.63
2023-02-05T21:25:36.636Z,41.60
2023-02-05T21:40:38.985Z,39.42
2023-02-05T21:55:40.926Z,43.50
2023-02-05T22:10:42.843Z,48.15
2023-02-05T22:25:48.335Z,40.28
2023-02-05T22:40:50.429Z,41.58
2023-02-05T22:55:52.424Z,39.42
2023-02-05T23:10:54.381Z,42.55
2023-02-05T23:25:56.435Z,34.88
2023-02-05T23:40:59.373Z,33.97
2023-02-05T23:56:02.301Z,34.33
